Time;durP1;ratioP1;P1;durP2;ratioP2;P2;SDS_P1;SDS_P2;PMS_P1;PMS_P2;Temp;Humidity;BMP_temperature;BMP_pressure;BME280_temperature;BME280_humidity;BME280_pressure;Samples;Min_cycle;Max_cycle;Signal;HPM_P1;HPM_P2
2021/06/01 00:00:40;;;;;;;10.67;9.60;;;;;;;;;;5074366;28;20496;-73
2021/06/01 00:03:06;;;;;;;11.03;9.93;;;;;;;;;;5056221;28;20750;-73
2021/06/01 00:05:32;;;;;;;13.47;8.10;;;;;;;;;;5054300;28;20439;-72
2021/06/01 00:07:58;;;;;;;10.17;9.00;;;;;;;;;;5054577;28;20423;-73
2021/06/01 00:10:24;;;;;;;9.97;9.07;;;;;;;;;;5054239;28;20489;-73
2021/06/01 00:12:50;;;;;;;12.87;10.03;;;;;;;;;;5054129;28;20451;-73
2021/06/01 00:15:16;;;;;;;11.07;9.50;;;;;;;;;;5060728;28;20803;-72
2021/06/01 00:17:42;;;;;;;11.00;9.90;;;;;;;;;;5063765;28;20419;-71
2021/06/01 00:20:10;;;;;;;11.00;9.80;;;;;;;;;;5061714;28;20859;-72
2021/06/01 00:22:37;;;;;;;10.37;9.37;;;;;;;;;;5067961;28;20499;-71
2021/06/01 00:25:03;;;;;;;10.80;9.70;;;;;;;;;;5065559;28;20430;-72
2021/06/01 00:27:29;;;;;;;9.60;8.70;;;;;;;;;;5079503;28;20475;-72
2021/06/01 00:29:55;;;;;;;10.30;9.30;;;;;;;;;;5073854;28;20442;-73
2021/06/01 00:32:21;;;;;;;11.10;9.97;;;;;;;;;;5087368;28;20461;-72
2021/06/01 00:34:47;;;;;;;12.03;9.47;;;;;;;;;;5062208;28;20416;-73
2021/06/01 00:37:13;;;;;;;10.70;9.70;;;;;;;;;;5067561;28;20407;-72
2021/06/01 00:39:39;;;;;;;10.60;9.60;;;;;;;;;;5073725;28;20948;-71
2021/06/01 00:42:06;;;;;;;12.53;10.40;;;;;;;;;;5068320;28;20419;-75
2021/06/01 00:44:32;;;;;;;10.63;9.57;;;;;;;;;;5053963;28;20419;-74
2021/06/01 00:46:58;;;;;;;12.25;10.50;;;;;;;;;;5053616;28;20896;-75
2021/06/01 00:49:24;;;;;;;11.27;10.20;;;;;;;;;;5067020;28;20515;-75
2021/06/01 00:51:50;;;;;;;10.60;9.45;;;;;;;;;;5067747;28;20494;-72
2021/06/01 00:54:16;;;;;;;11.13;9.82;;;;;;;;;;5053679;28;20205;-73
2021/06/01 00:56:42;;;;;;;10.63;9.50;;;;;;;;;;5053546;28;20220;-72
2021/06/01 00:59:08;;;;;;;10.55;9.55;;;;;;;;;;5052011;28;20420;-73
2021/06/01 01:01:34;;;;;;;11.18;10.18;;;;;;;;;;5060888;28;20279;-73
2021/06/01 01:04:00;;;;;;;10.83;9.67;;;;;;;;;;5061091;28;20218;-72
2021/06/01 01:06:35;;;;;;;11.13;10.02;;;;;;;;;;5053209;28;20433;-73
2021/06/01 01:09:08;;;;;;;12.27;10.35;;;;;;;;;;5071673;28;20167;-77
2021/06/01 01:11:49;;;;;;;10.60;9.13;;;;;;;;;;5062979;28;20302;-72
2021/06/01 01:14:20;;;;;;;11.18;10.07;;;;;;;;;;5054049;28;20473;-75
2021/06/01 01:16:51;;;;;;;12.63;11.32;;;;;;;;;;5069545;28;20195;-72
2021/06/01 01:19:32;;;;;;;12.55;9.80;;;;;;;;;;5073031;28;20221;-73
2021/06/01 01:21:58;;;;;;;11.63;10.43;;;;;;;;;;5063457;28;20209;-74
2021/06/01 01:24:43;;;;;;;11.70;10.60;;;;;;;;;;5056931;28;20185;-72
2021/06/01 01:27:12;;;;;;;11.50;10.40;;;;;;;;;;5067269;28;20179;-72
2021/06/01 01:29:41;;;;;;;12.30;10.63;;;;;;;;;;5064228;28;20177;-71
2021/06/01 01:32:18;;;;;;;10.25;9.25;;;;;;;;;;5071475;28;20192;-72
2021/06/01 01:34:44;;;;;;;11.20;10.10;;;;;;;;;;5073133;28;20686;-74
2021/06/01 01:37:10;;;;;;;12.32;11.13;;;;;;;;;;5074874;28;20179;-71
2021/06/01 01:39:42;;;;;;;10.77;9.77;;;;;;;;;;5078083;28;20950;-74
2021/06/01 01:42:11;;;;;;;15.52;9.93;;;;;;;;;;5080520;28;20483;-74
2021/06/01 01:44:47;;;;;;;11.93;10.77;;;;;;;;;;5075075;28;20207;-76
2021/06/01 01:49:58;;;;;;;11.65;10.52;;;;;;;;;;5084739;28;20271;-72
2021/06/01 01:52:24;;;;;;;11.20;10.10;;;;;;;;;;5080016;28;20232;-72
2021/06/01 01:54:50;;;;;;;12.88;10.65;;;;;;;;;;5064853;28;20767;-73
2021/06/01 01:57:16;;;;;;;13.10;10.40;;;;;;;;;;5073608;28;20176;-74
2021/06/01 01:59:43;;;;;;;11.77;10.68;;;;;;;;;;5069535;28;20177;-72
2021/06/01 02:02:09;;;;;;;11.60;10.40;;;;;;;;;;5069663;28;20183;-73
2021/06/01 02:04:36;;;;;;;12.80;10.73;;;;;;;;;;5067349;28;20527;-71
2021/06/01 02:07:02;;;;;;;12.23;10.48;;;;;;;;;;5063130;28;20189;-74
2021/06/01 02:09:28;;;;;;;11.70;10.55;;;;;;;;;;5076771;28;20267;-71
2021/06/01 02:11:54;;;;;;;11.70;10.00;;;;;;;;;;5064600;28;20292;-76
2021/06/01 02:14:21;;;;;;;11.07;9.98;;;;;;;;;;5056783;28;20465;-73
2021/06/01 02:16:47;;;;;;;10.77;9.65;;;;;;;;;;5056802;28;20172;-75
2021/06/01 02:19:15;;;;;;;10.27;9.18;;;;;;;;;;5085816;28;20235;-72
2021/06/01 02:22:00;;;;;;;11.13;10.13;;;;;;;;;;5067831;28;20228;-74
2021/06/01 02:24:29;;;;;;;10.73;9.48;;;;;;;;;;5081193;28;20180;-76
2021/06/01 02:27:03;;;;;;;13.02;10.48;;;;;;;;;;5079561;28;20187;-75
2021/06/01 02:29:35;;;;;;;11.43;10.32;;;;;;;;;;5074193;28;20172;-75
2021/06/01 02:32:04;;;;;;;12.55;10.73;;;;;;;;;;5061844;28;20207;-73
2021/06/01 02:34:31;;;;;;;11.90;9.82;;;;;;;;;;5086843;28;20176;-72
2021/06/01 02:36:57;;;;;;;11.45;10.25;;;;;;;;;;5059382;28;20173;-73
2021/06/01 02:39:23;;;;;;;11.45;10.35;;;;;;;;;;5059665;28;20214;-72
2021/06/01 02:41:50;;;;;;;10.38;9.38;;;;;;;;;;5059719;28;20205;-71
2021/06/01 02:44:16;;;;;;;11.80;10.55;;;;;;;;;;5065985;28;20191;-71
2021/06/01 02:46:43;;;;;;;15.65;11.25;;;;;;;;;;5058535;28;20184;-73
2021/06/01 02:49:09;;;;;;;11.00;9.90;;;;;;;;;;5069901;28;20736;-73
2021/06/01 02:51:38;;;;;;;10.88;9.63;;;;;;;;;;5056600;28;20563;-75
2021/06/01 02:54:05;;;;;;;10.80;9.70;;;;;;;;;;5079769;28;20156;-72
2021/06/01 02:56:31;;;;;;;11.15;10.00;;;;;;;;;;5060859;28;20184;-72
2021/06/01 02:58:58;;;;;;;11.70;9.80;;;;;;;;;;5065013;28;20177;-73
2021/06/01 03:01:25;;;;;;;12.77;10.52;;;;;;;;;;5062234;28;20201;-74
2021/06/01 03:03:52;;;;;;;11.35;10.15;;;;;;;;;;5072506;28;20216;-73
2021/06/01 03:06:19;;;;;;;11.18;10.02;;;;;;;;;;5057766;28;20204;-76
2021/06/01 03:08:45;;;;;;;13.32;10.65;;;;;;;;;;5075847;28;20524;-71
2021/06/01 03:11:15;;;;;;;11.88;10.68;;;;;;;;;;5060250;28;20315;-74
2021/06/01 03:13:41;;;;;;;13.23;10.93;;;;;;;;;;5088094;28;20179;-72
2021/06/01 03:16:07;;;;;;;11.65;9.90;;;;;;;;;;5067541;28;20630;-74
2021/06/01 03:18:34;;;;;;;11.60;10.30;;;;;;;;;;5095467;28;20210;-73
2021/06/01 03:21:00;;;;;;;13.90;9.82;;;;;;;;;;5079291;28;21099;-73
2021/06/01 03:23:26;;;;;;;14.05;10.98;;;;;;;;;;5067581;28;20180;-73
2021/06/01 03:25:53;;;;;;;10.50;9.35;;;;;;;;;;5065540;28;20183;-73
2021/06/01 03:28:19;;;;;;;15.70;11.10;;;;;;;;;;5077225;28;20188;-73
2021/06/01 03:30:45;;;;;;;12.70;11.50;;;;;;;;;;5057157;28;20227;-75
2021/06/01 03:33:11;;;;;;;12.38;11.18;;;;;;;;;;5087082;28;20253;-73
2021/06/01 03:35:37;;;;;;;11.70;10.60;;;;;;;;;;5067954;28;20198;-73
2021/06/01 03:38:04;;;;;;;16.52;11.15;;;;;;;;;;5069342;28;20222;-72
2021/06/01 03:40:30;;;;;;;11.20;9.93;;;;;;;;;;5062496;28;20184;-76
2021/06/01 03:42:56;;;;;;;14.00;8.57;;;;;;;;;;5077504;28;20203;-74
2021/06/01 03:45:24;;;;;;;10.05;9.05;;;;;;;;;;5060755;28;20185;-74
2021/06/01 03:47:50;;;;;;;12.82;9.40;;;;;;;;;;5065224;28;20708;-72
2021/06/01 03:50:16;;;;;;;22.73;10.20;;;;;;;;;;5080678;28;20205;-74
2021/06/01 03:52:42;;;;;;;10.23;9.23;;;;;;;;;;5071073;28;20276;-71
2021/06/01 03:55:09;;;;;;;12.97;10.10;;;;;;;;;;5054997;28;20264;-74
2021/06/01 03:57:35;;;;;;;12.02;10.77;;;;;;;;;;5067743;28;20417;-70
2021/06/01 04:00:01;;;;;;;10.20;9.10;;;;;;;;;;5055270;28;20290;-70
2021/06/01 04:02:27;;;;;;;11.02;9.93;;;;;;;;;;5060675;28;20212;-74
2021/06/01 04:04:53;;;;;;;13.00;10.35;;;;;;;;;;5054514;28;20208;-74
2021/06/01 04:07:19;;;;;;;11.80;10.00;;;;;;;;;;5070486;28;20192;-73
2021/06/01 04:09:45;;;;;;;11.27;9.50;;;;;;;;;;5060917;28;20417;-74
2021/06/01 04:12:11;;;;;;;10.77;9.77;;;;;;;;;;5072579;28;20211;-73
2021/06/01 04:14:38;;;;;;;12.00;10.52;;;;;;;;;;5058866;28;20418;-73
2021/06/01 04:17:04;;;;;;;11.75;10.15;;;;;;;;;;5072888;28;20167;-73
2021/06/01 04:19:30;;;;;;;13.87;10.60;;;;;;;;;;5072073;28;20176;-77
2021/06/01 04:21:56;;;;;;;15.38;10.55;;;;;;;;;;5070653;28;20430;-73
2021/06/01 04:24:27;;;;;;;12.10;9.27;;;;;;;;;;5078919;28;20172;-75
2021/06/01 04:26:54;;;;;;;11.65;10.45;;;;;;;;;;5067996;28;20899;-71
2021/06/01 04:29:20;;;;;;;11.38;10.23;;;;;;;;;;5066841;28;20344;-72
2021/06/01 04:31:46;;;;;;;10.63;9.53;;;;;;;;;;5063664;28;20677;-74
2021/06/01 04:34:12;;;;;;;14.40;10.17;;;;;;;;;;5063995;28;20415;-73
2021/06/01 04:36:38;;;;;;;11.10;10.00;;;;;;;;;;5059950;28;20822;-73
2021/06/01 04:39:05;;;;;;;11.23;10.13;;;;;;;;;;5064905;28;20420;-73
2021/06/01 04:41:31;;;;;;;12.23;10.10;;;;;;;;;;5053848;28;20453;-74
2021/06/01 04:43:57;;;;;;;11.80;10.40;;;;;;;;;;5061880;28;20518;-73
2021/06/01 04:46:23;;;;;;;12.73;10.37;;;;;;;;;;5081894;28;20450;-75
2021/06/01 04:48:49;;;;;;;13.40;10.30;;;;;;;;;;5074266;28;20426;-73
2021/06/01 04:51:18;;;;;;;13.20;11.00;;;;;;;;;;5061637;28;20838;-72
2021/06/01 04:53:47;;;;;;;13.13;11.33;;;;;;;;;;5080550;28;20422;-76
2021/06/01 04:56:13;;;;;;;11.30;9.80;;;;;;;;;;5060405;28;20731;-76
2021/06/01 04:58:39;;;;;;;12.97;11.40;;;;;;;;;;5057094;28;20415;-73
2021/06/01 05:01:06;;;;;;;13.87;12.33;;;;;;;;;;5067795;28;20794;-73
2021/06/01 05:03:32;;;;;;;13.07;10.87;;;;;;;;;;5067252;28;20425;-71
2021/06/01 05:05:58;;;;;;;12.90;11.60;;;;;;;;;;5065930;28;20911;-75
2021/06/01 05:08:24;;;;;;;11.97;10.77;;;;;;;;;;5053272;28;20798;-73
2021/06/01 05:10:50;;;;;;;14.70;12.47;;;;;;;;;;5055107;28;20442;-72
2021/06/01 05:13:16;;;;;;;19.23;12.50;;;;;;;;;;5067066;28;20457;-72
2021/06/01 05:15:43;;;;;;;13.07;11.77;;;;;;;;;;5064465;28;20428;-76
2021/06/01 05:18:10;;;;;;;12.07;10.80;;;;;;;;;;5082772;28;20447;-71
2021/06/01 05:20:36;;;;;;;13.40;11.23;;;;;;;;;;5074276;28;20466;-76
2021/06/01 05:23:02;;;;;;;11.30;10.10;;;;;;;;;;5066269;28;20434;-76
2021/06/01 05:25:28;;;;;;;11.43;9.70;;;;;;;;;;5069836;28;20500;-75
2021/06/01 05:27:54;;;;;;;11.27;10.17;;;;;;;;;;5068513;28;20867;-75
2021/06/01 05:30:24;;;;;;;11.60;9.80;;;;;;;;;;5058894;28;20547;-76
2021/06/01 05:33:11;;;;;;;10.53;8.97;;;;;;;;;;5063625;28;20462;-76
2021/06/01 05:35:41;;;;;;;11.43;9.57;;;;;;;;;;5053415;28;20505;-74
2021/06/01 05:38:07;;;;;;;9.80;8.80;;;;;;;;;;5056516;28;20409;-76
2021/06/01 05:40:33;;;;;;;11.20;10.10;;;;;;;;;;5068224;28;20446;-74
2021/06/01 05:42:59;;;;;;;11.70;10.50;;;;;;;;;;5066439;28;20413;-73
2021/06/01 05:45:25;;;;;;;11.10;10.00;;;;;;;;;;5053469;28;20426;-73
2021/06/01 05:47:51;;;;;;;12.40;10.90;;;;;;;;;;5072222;28;20780;-74
2021/06/01 05:50:17;;;;;;;10.40;9.50;;;;;;;;;;5058162;28;20965;-74
2021/06/01 05:52:43;;;;;;;13.63;10.33;;;;;;;;;;5060546;28;20493;-73
2021/06/01 05:55:09;;;;;;;11.00;9.90;;;;;;;;;;5052411;28;20410;-72
2021/06/01 05:57:35;;;;;;;12.33;11.10;;;;;;;;;;5052974;28;20420;-72
2021/06/01 06:00:01;;;;;;;12.43;11.20;;;;;;;;;;5052494;28;20436;-73
2021/06/01 06:02:27;;;;;;;11.23;10.13;;;;;;;;;;5052879;28;20927;-73
2021/06/01 06:04:53;;;;;;;10.83;9.73;;;;;;;;;;5052475;28;20423;-75
2021/06/01 06:07:19;;;;;;;11.30;10.10;;;;;;;;;;5052426;28;20938;-74
2021/06/01 06:09:45;;;;;;;15.13;9.67;;;;;;;;;;5052667;28;20804;-73
2021/06/01 06:12:12;;;;;;;11.10;9.60;;;;;;;;;;5052572;28;20459;-75
2021/06/01 06:14:38;;;;;;;13.17;10.13;;;;;;;;;;5066099;28;20407;-74
2021/06/01 06:17:08;;;;;;;13.20;11.23;;;;;;;;;;5053013;28;20976;-74
2021/06/01 06:19:40;;;;;;;15.47;10.47;;;;;;;;;;5057681;28;20923;-74
2021/06/01 06:22:07;;;;;;;11.23;9.50;;;;;;;;;;5072841;28;20426;-76
2021/06/01 06:24:33;;;;;;;12.07;10.27;;;;;;;;;;5067362;28;20414;-73
2021/06/01 06:26:59;;;;;;;13.53;9.80;;;;;;;;;;5067690;28;20428;-74
2021/06/01 06:29:25;;;;;;;12.70;9.40;;;;;;;;;;5064355;28;20420;-72
2021/06/01 06:31:51;;;;;;;13.40;8.70;;;;;;;;;;5053541;28;20462;-74
2021/06/01 06:34:17;;;;;;;14.13;8.80;;;;;;;;;;5064774;28;20412;-74
2021/06/01 06:36:43;;;;;;;10.00;7.27;;;;;;;;;;5052728;28;20893;-75
2021/06/01 06:39:10;;;;;;;7.73;6.57;;;;;;;;;;5056392;28;20445;-73
2021/06/01 06:41:36;;;;;;;16.00;13.23;;;;;;;;;;5056161;28;20432;-73
2021/06/01 06:44:03;;;;;;;15.30;12.40;;;;;;;;;;5056314;28;20411;-73
2021/06/01 06:46:36;;;;;;;5.67;5.10;;;;;;;;;;5056309;28;20399;-73
2021/06/01 06:49:03;;;;;;;6.00;5.50;;;;;;;;;;5056282;28;20419;-73
2021/06/01 06:51:29;;;;;;;7.03;6.43;;;;;;;;;;5056134;28;20550;-74
2021/06/01 06:53:56;;;;;;;5.47;5.00;;;;;;;;;;5056050;28;20399;-72
2021/06/01 06:56:23;;;;;;;5.50;4.90;;;;;;;;;;5056029;28;20411;-75
2021/06/01 06:58:50;;;;;;;6.90;4.47;;;;;;;;;;5059711;28;20468;-72
2021/06/01 07:01:16;;;;;;;4.23;3.83;;;;;;;;;;5059497;28;20963;-73
2021/06/01 07:03:42;;;;;;;4.10;3.63;;;;;;;;;;5055508;28;20501;-73
2021/06/01 07:06:08;;;;;;;4.63;4.23;;;;;;;;;;5055690;28;20431;-72
2021/06/01 07:08:35;;;;;;;4.20;3.90;;;;;;;;;;5062001;28;20780;-70
2021/06/01 07:11:01;;;;;;;9.03;6.70;;;;;;;;;;5065307;28;20541;-72
2021/06/01 07:13:31;;;;;;;8.90;8.10;;;;;;;;;;5051707;28;20521;-73
2021/06/01 07:15:57;;;;;;;5.67;5.17;;;;;;;;;;5052587;28;21221;-72
2021/06/01 07:18:23;;;;;;;4.97;3.57;;;;;;;;;;5051838;28;21206;-71
2021/06/01 07:20:49;;;;;;;5.13;4.07;;;;;;;;;;5064220;28;20446;-71
2021/06/01 07:23:15;;;;;;;4.30;4.00;;;;;;;;;;5051707;28;20422;-70
2021/06/01 07:25:41;;;;;;;3.77;3.47;;;;;;;;;;5058905;28;20439;-73
2021/06/01 07:28:07;;;;;;;4.17;3.80;;;;;;;;;;5070605;28;20483;-75
2021/06/01 07:30:34;;;;;;;3.67;3.37;;;;;;;;;;5075743;28;20461;-74
2021/06/01 07:33:00;;;;;;;4.80;3.80;;;;;;;;;;5063737;28;20528;-72
2021/06/01 07:35:27;;;;;;;3.80;3.50;;;;;;;;;;5078163;28;20774;-74
2021/06/01 07:37:56;;;;;;;3.83;3.53;;;;;;;;;;5051320;28;20788;-71
2021/06/01 07:40:22;;;;;;;3.70;3.40;;;;;;;;;;5069666;28;20441;-75
2021/06/01 07:42:48;;;;;;;3.63;3.33;;;;;;;;;;5058789;28;20410;-72
2021/06/01 07:45:15;;;;;;;4.23;3.83;;;;;;;;;;5060672;28;20430;-73
2021/06/01 07:47:42;;;;;;;3.67;3.37;;;;;;;;;;5051281;28;20415;-72
2021/06/01 07:50:08;;;;;;;3.10;2.80;;;;;;;;;;5063718;28;20453;-74
2021/06/01 07:52:34;;;;;;;3.30;3.00;;;;;;;;;;5074891;28;20474;-71
2021/06/01 07:55:00;;;;;;;5.60;2.80;;;;;;;;;;5050907;28;20420;-71
2021/06/01 07:57:26;;;;;;;4.07;3.60;;;;;;;;;;5057940;28;20426;-72
2021/06/01 07:59:52;;;;;;;3.43;3.10;;;;;;;;;;5050765;28;20924;-72
2021/06/01 08:02:19;;;;;;;3.43;2.83;;;;;;;;;;5054922;28;20446;-71
2021/06/01 08:04:45;;;;;;;3.27;2.97;;;;;;;;;;5069231;28;20435;-70
2021/06/01 08:07:13;;;;;;;3.60;3.30;;;;;;;;;;5070680;28;20434;-75
2021/06/01 08:09:39;;;;;;;5.40;4.83;;;;;;;;;;5057193;28;20786;-75
2021/06/01 08:12:05;;;;;;;3.80;3.37;;;;;;;;;;5065037;28;20469;-73
2021/06/01 08:14:32;;;;;;;4.00;3.60;;;;;;;;;;5057410;28;20404;-78
2021/06/01 08:16:59;;;;;;;4.57;4.20;;;;;;;;;;5070706;28;20425;-73
2021/06/01 08:19:31;;;;;;;4.20;3.90;;;;;;;;;;5060469;28;20893;-73
2021/06/01 08:24:24;;;;;;;4.50;4.03;;;;;;;;;;5065729;28;20418;-72
2021/06/01 08:26:50;;;;;;;4.40;4.00;;;;;;;;;;5062115;28;20451;-79
2021/06/01 08:29:16;;;;;;;4.27;3.30;;;;;;;;;;5051310;28;20503;-73
2021/06/01 08:31:42;;;;;;;3.77;3.47;;;;;;;;;;5050405;28;20467;-74
2021/06/01 08:34:09;;;;;;;4.43;4.03;;;;;;;;;;5050353;28;20419;-75
2021/06/01 08:36:36;;;;;;;4.40;4.00;;;;;;;;;;5050556;28;20419;-72
2021/06/01 08:39:03;;;;;;;4.27;3.83;;;;;;;;;;5050482;28;20696;-75
2021/06/01 08:41:29;;;;;;;3.97;3.53;;;;;;;;;;5050309;28;20786;-75
2021/06/01 08:43:59;;;;;;;4.23;3.83;;;;;;;;;;5063454;28;20433;-74
2021/06/01 08:46:26;;;;;;;3.97;3.67;;;;;;;;;;5062582;28;20462;-71
2021/06/01 08:48:53;;;;;;;4.73;4.23;;;;;;;;;;5049922;28;20537;-75
2021/06/01 08:51:22;;;;;;;4.30;3.63;;;;;;;;;;5076209;28;20447;-72
2021/06/01 08:53:48;;;;;;;3.67;3.37;;;;;;;;;;5050333;28;20847;-73
2021/06/01 08:56:15;;;;;;;4.27;3.40;;;;;;;;;;5062237;28;20427;-73
2021/06/01 08:58:42;;;;;;;4.10;3.70;;;;;;;;;;5049999;28;20419;-71
2021/06/01 09:01:08;;;;;;;4.63;3.63;;;;;;;;;;5076916;28;20445;-71
2021/06/01 09:03:35;;;;;;;4.07;3.60;;;;;;;;;;5068581;28;20418;-72
2021/06/01 09:06:04;;;;;;;4.70;3.57;;;;;;;;;;5067058;28;20439;-76
2021/06/01 09:08:40;;;;;;;5.30;3.23;;;;;;;;;;5062745;28;20450;-73
2021/06/01 09:11:15;;;;;;;4.33;3.93;;;;;;;;;;5049794;28;20442;-73
2021/06/01 09:21:45;;;;;;;4.60;4.20;;;;;;;;;;5049574;28;20431;-76
2021/06/01 09:24:12;;;;;;;6.40;4.73;;;;;;;;;;5049844;28;20421;-75
2021/06/01 09:26:38;;;;;;;4.60;3.97;;;;;;;;;;5073176;28;20485;-74
2021/06/01 09:29:04;;;;;;;4.80;4.20;;;;;;;;;;5052757;28;20431;-71
2021/06/01 09:31:30;;;;;;;5.70;5.20;;;;;;;;;;5052848;28;20890;-75
2021/06/01 09:33:56;;;;;;;5.93;5.40;;;;;;;;;;5052803;28;20411;-72
2021/06/01 09:36:22;;;;;;;5.43;5.03;;;;;;;;;;5053108;28;20501;-73
2021/06/01 09:38:49;;;;;;;5.90;5.50;;;;;;;;;;5052925;28;20411;-75
2021/06/01 09:41:16;;;;;;;6.40;5.90;;;;;;;;;;5053019;28;20439;-73
2021/06/01 09:43:48;;;;;;;12.03;6.13;;;;;;;;;;5052705;28;20411;-72
2021/06/01 09:46:21;;;;;;;5.93;5.43;;;;;;;;;;5052807;28;20408;-71
2021/06/01 09:48:48;;;;;;;5.50;5.10;;;;;;;;;;5066307;28;20415;-76
2021/06/01 09:51:28;;;;;;;5.57;4.97;;;;;;;;;;5052809;28;20472;-75
2021/06/01 09:53:56;;;;;;;5.53;5.03;;;;;;;;;;5052931;28;20411;-75
2021/06/01 09:56:23;;;;;;;6.13;5.13;;;;;;;;;;5053074;28;20411;-74
2021/06/01 09:58:50;;;;;;;5.33;4.93;;;;;;;;;;5052545;28;20415;-73
2021/06/01 10:01:16;;;;;;;7.13;6.53;;;;;;;;;;5066735;28;20476;-76
2021/06/01 10:03:45;;;;;;;5.03;4.30;;;;;;;;;;5072889;28;20411;-72
2021/06/01 10:06:12;;;;;;;4.70;4.30;;;;;;;;;;5072772;28;20470;-76
2021/06/01 10:08:56;;;;;;;5.30;4.80;;;;;;;;;;5067403;28;20403;-74
2021/06/01 10:11:22;;;;;;;4.73;4.33;;;;;;;;;;5067337;28;20806;-74
2021/06/01 10:13:48;;;;;;;4.10;3.80;;;;;;;;;;5060574;28;20473;-74
2021/06/01 10:16:16;;;;;;;4.03;3.63;;;;;;;;;;5059069;28;20411;-73
2021/06/01 10:18:43;;;;;;;5.50;4.10;;;;;;;;;;5078427;28;20921;-73
2021/06/01 10:21:11;;;;;;;4.03;3.73;;;;;;;;;;5076610;28;20434;-71
2021/06/01 10:23:40;;;;;;;5.10;4.30;;;;;;;;;;5076786;28;20509;-69
2021/06/01 10:26:07;;;;;;;5.60;4.60;;;;;;;;;;5058669;28;20502;-73
2021/06/01 10:31:00;;;;;;;4.00;3.70;;;;;;;;;;5056722;28;20467;-72
2021/06/01 10:33:28;;;;;;;6.00;4.20;;;;;;;;;;5056146;28;20470;-76
2021/06/01 10:52:08;;;;;;;5.00;4.60;;;;;;;;;;5056235;28;20496;-74
2021/06/01 10:54:47;;;;;;;7.30;5.53;;;;;;;;;;5055676;28;20426;-74
2021/06/01 10:57:15;;;;;;;4.97;4.50;;;;;;;;;;5056212;28;20414;-75
2021/06/01 10:59:49;;;;;;;4.47;4.07;;;;;;;;;;5055966;28;20407;-77
2021/06/01 11:02:15;;;;;;;4.80;4.40;;;;;;;;;;5055922;28;20502;-74
2021/06/01 11:05:01;;;;;;;5.07;4.60;;;;;;;;;;5054259;28;20473;-74
2021/06/01 11:07:39;;;;;;;4.60;4.20;;;;;;;;;;5064753;28;20476;-75
2021/06/01 11:10:05;;;;;;;5.03;4.63;;;;;;;;;;5072224;28;20431;-77
2021/06/01 11:12:39;;;;;;;4.83;4.43;;;;;;;;;;5055624;28;20483;-74
2021/06/01 11:15:19;;;;;;;4.63;4.33;;;;;;;;;;5055617;28;20416;-74
2021/06/01 11:17:45;;;;;;;4.10;3.80;;;;;;;;;;5055459;28;20407;-74
2021/06/01 11:20:25;;;;;;;4.73;4.33;;;;;;;;;;5055609;28;20797;-73
2021/06/01 11:23:28;;;;;;;4.60;4.30;;;;;;;;;;5068556;28;20402;-73
2021/06/01 11:33:53;;;;;;;4.60;4.30;;;;;;;;;;5055593;28;20483;-74
2021/06/01 11:36:20;;;;;;;4.60;4.30;;;;;;;;;;5055114;28;20418;-74
2021/06/01 11:38:53;;;;;;;4.90;4.50;;;;;;;;;;5055182;28;20406;-74
2021/06/01 11:44:26;;;;;;;4.60;4.30;;;;;;;;;;5054639;28;20958;-75
2021/06/01 11:52:03;;;;;;;4.60;4.20;;;;;;;;;;5055281;28;20465;-74
2021/06/01 11:54:29;;;;;;;4.47;4.10;;;;;;;;;;5054852;28;20412;-74
2021/06/01 12:05:14;;;;;;;4.97;4.67;;;;;;;;;;5062548;28;20420;-76
2021/06/01 12:13:19;;;;;;;5.30;4.90;;;;;;;;;;5063493;28;20567;-74
2021/06/01 12:18:37;;;;;;;5.40;5.10;;;;;;;;;;5080134;28;20475;-71
2021/06/01 12:21:07;;;;;;;5.20;4.70;;;;;;;;;;5053336;28;20470;-71
2021/06/01 12:23:38;;;;;;;5.63;5.23;;;;;;;;;;5059690;28;20932;-72
2021/06/01 12:26:11;;;;;;;5.60;5.30;;;;;;;;;;5050667;28;20419;-74
2021/06/01 12:31:54;;;;;;;4.90;4.60;;;;;;;;;;5051142;28;20556;-74
2021/06/01 12:34:49;;;;;;;4.73;4.33;;;;;;;;;;5051836;28;22424;-74
2021/06/01 12:45:24;;;;;;;5.00;4.50;;;;;;;;;;5049633;28;20777;-74
2021/06/01 13:08:02;;;;;;;5.30;4.90;;;;;;;;;;5076059;28;20518;-75
2021/06/01 13:21:10;;;;;;;4.77;4.37;;;;;;;;;;5075057;28;20940;-75
2021/06/01 13:39:54;;;;;;;5.37;4.93;;;;;;;;;;5054416;28;20570;-71
2021/06/01 13:51:03;;;;;;;6.00;5.53;;;;;;;;;;5066534;28;20808;-75
2021/06/01 13:59:05;;;;;;;5.60;5.00;;;;;;;;;;5022578;28;20416;-75
2021/06/01 15:04:22;;;;;;;5.80;5.20;;;;;;;;;;5055746;28;20431;-73
2021/06/01 15:48:48;;;;;;;4.20;3.77;;;;;;;;;;5051307;28;20411;-74
2021/06/01 15:51:43;;;;;;;6.20;3.37;;;;;;;;;;5051175;28;20458;-75
2021/06/01 16:13:06;;;;;;;3.40;3.10;;;;;;;;;;5050851;28;20540;-77
2021/06/01 17:07:09;;;;;;;5.60;3.63;;;;;;;;;;5058334;28;20465;-73
2021/06/01 17:12:30;;;;;;;3.13;2.83;;;;;;;;;;5081663;28;20481;-73
2021/06/01 17:14:56;;;;;;;5.33;3.00;;;;;;;;;;5056535;28;20753;-75
2021/06/01 17:17:24;;;;;;;3.80;3.17;;;;;;;;;;5062012;28;20432;-74
2021/06/01 17:20:07;;;;;;;3.23;2.20;;;;;;;;;;5049296;28;20462;-74
2021/06/01 17:35:59;;;;;;;3.13;2.27;;;;;;;;;;5058422;28;20416;-73
2021/06/01 17:38:26;;;;;;;2.50;2.10;;;;;;;;;;5052485;28;20449;-78
2021/06/01 17:40:56;;;;;;;2.80;2.53;;;;;;;;;;5054079;28;20800;-76
2021/06/01 17:43:26;;;;;;;2.43;2.00;;;;;;;;;;5067991;28;20789;-74
2021/06/01 17:45:54;;;;;;;2.97;2.07;;;;;;;;;;5053632;28;20411;-75
2021/06/01 17:48:49;;;;;;;2.10;1.80;;;;;;;;;;5058141;28;20784;-75
2021/06/01 17:51:16;;;;;;;2.30;1.80;;;;;;;;;;5078769;28;20458;-75
2021/06/01 17:53:43;;;;;;;2.33;1.70;;;;;;;;;;5053730;28;20466;-73
2021/06/01 17:56:12;;;;;;;2.87;1.97;;;;;;;;;;5069735;28;20459;-74
2021/06/01 17:58:39;;;;;;;2.50;2.03;;;;;;;;;;5061205;28;20429;-76
2021/06/01 18:01:06;;;;;;;3.67;2.77;;;;;;;;;;5049206;28;20469;-75
2021/06/01 18:03:35;;;;;;;2.17;1.80;;;;;;;;;;5054897;28;20513;-75
2021/06/01 18:06:02;;;;;;;2.63;1.77;;;;;;;;;;5050268;28;20464;-74
2021/06/01 19:25:03;;;;;;;3.00;2.70;;;;;;;;;;5058692;28;20422;-74
2021/06/01 19:42:29;;;;;;;3.27;2.33;;;;;;;;;;5082238;28;20460;-74
2021/06/01 19:49:57;;;;;;;5.10;3.40;;;;;;;;;;5068866;28;21105;-75
2021/06/01 19:52:23;;;;;;;5.03;3.17;;;;;;;;;;5051289;28;21263;-74
2021/06/01 19:54:53;;;;;;;4.70;3.00;;;;;;;;;;5065889;28;20537;-75
2021/06/01 19:57:19;;;;;;;6.80;3.57;;;;;;;;;;5062741;28;20448;-75
2021/06/01 19:59:46;;;;;;;3.97;3.57;;;;;;;;;;5057836;28;20435;-75
2021/06/01 20:02:22;;;;;;;4.10;3.80;;;;;;;;;;5051413;28;20419;-75
2021/06/01 20:04:52;;;;;;;4.30;3.87;;;;;;;;;;5056213;28;20531;-74
2021/06/01 20:07:19;;;;;;;4.77;4.37;;;;;;;;;;5051759;28;20526;-74
2021/06/01 20:09:46;;;;;;;4.80;4.40;;;;;;;;;;5054078;28;20800;-75
2021/06/01 20:12:12;;;;;;;4.60;4.20;;;;;;;;;;5053532;28;20487;-76
2021/06/01 20:14:38;;;;;;;5.43;4.93;;;;;;;;;;5067234;28;20431;-75
2021/06/01 20:17:08;;;;;;;6.60;6.00;;;;;;;;;;5062094;28;20409;-75
2021/06/01 20:19:35;;;;;;;6.17;5.60;;;;;;;;;;5069087;28;20419;-74
2021/06/01 20:22:02;;;;;;;7.90;5.67;;;;;;;;;;5071443;28;20866;-75
2021/06/01 20:24:29;;;;;;;6.50;5.80;;;;;;;;;;5057555;28;20436;-75
2021/06/01 20:26:56;;;;;;;7.20;5.80;;;;;;;;;;5070220;28;20472;-75
2021/06/01 20:29:30;;;;;;;6.03;5.37;;;;;;;;;;5064049;28;20467;-75
2021/06/01 20:31:57;;;;;;;6.33;5.73;;;;;;;;;;5054942;28;20445;-73
2021/06/01 20:34:24;;;;;;;6.93;5.63;;;;;;;;;;5055361;28;20405;-75
2021/06/01 20:36:50;;;;;;;6.90;6.13;;;;;;;;;;5070250;28;20417;-75
2021/06/01 20:39:16;;;;;;;6.33;5.80;;;;;;;;;;5056575;28;20414;-74
2021/06/01 20:41:45;;;;;;;5.27;4.77;;;;;;;;;;5060227;28;20474;-75
2021/06/01 20:44:11;;;;;;;6.53;5.77;;;;;;;;;;5050928;28;20415;-75
2021/06/01 20:46:37;;;;;;;5.80;5.30;;;;;;;;;;5050350;28;20816;-75
2021/06/01 20:49:04;;;;;;;6.07;5.47;;;;;;;;;;5051138;28;20949;-73
2021/06/01 20:51:30;;;;;;;7.70;6.07;;;;;;;;;;5058900;28;20558;-73
2021/06/01 20:53:58;;;;;;;6.73;5.93;;;;;;;;;;5056430;28;20834;-74
2021/06/01 20:56:28;;;;;;;6.17;5.57;;;;;;;;;;5069318;28;20838;-74
2021/06/01 20:58:56;;;;;;;7.57;5.17;;;;;;;;;;5054657;28;20427;-74
2021/06/01 21:01:25;;;;;;;6.70;6.00;;;;;;;;;;5076497;28;20775;-73
2021/06/01 21:03:51;;;;;;;5.97;5.30;;;;;;;;;;5078143;28;20768;-74
2021/06/01 21:06:19;;;;;;;6.80;5.87;;;;;;;;;;5056314;28;20782;-74
2021/06/01 21:08:45;;;;;;;4.87;4.37;;;;;;;;;;5056116;28;20422;-74
2021/06/01 21:11:12;;;;;;;6.33;4.90;;;;;;;;;;5049451;28;20432;-73
2021/06/01 21:13:38;;;;;;;5.07;4.53;;;;;;;;;;5062460;28;21114;-74
2021/06/01 21:16:05;;;;;;;5.13;4.63;;;;;;;;;;5074319;28;20432;-74
2021/06/01 21:18:31;;;;;;;6.00;4.90;;;;;;;;;;5061011;28;20413;-73
2021/06/01 21:20:57;;;;;;;6.13;5.30;;;;;;;;;;5055458;28;20859;-73
2021/06/01 21:23:23;;;;;;;5.67;5.17;;;;;;;;;;5049567;28;21046;-74
2021/06/01 21:25:49;;;;;;;5.30;4.80;;;;;;;;;;5067661;28;20429;-74
2021/06/01 21:28:16;;;;;;;5.20;4.77;;;;;;;;;;5062488;28;20800;-74
2021/06/01 21:30:43;;;;;;;5.20;4.80;;;;;;;;;;5052062;28;20814;-74
2021/06/01 21:33:11;;;;;;;6.10;5.13;;;;;;;;;;5049079;28;20472;-75
2021/06/01 21:35:41;;;;;;;8.93;5.73;;;;;;;;;;5062974;28;20461;-75
2021/06/01 21:38:09;;;;;;;6.97;6.27;;;;;;;;;;5049056;28;20419;-73
2021/06/01 21:40:36;;;;;;;6.73;6.00;;;;;;;;;;5075439;28;20854;-74
2021/06/01 21:43:03;;;;;;;6.97;6.13;;;;;;;;;;5049096;28;20483;-74